Time;durP1;ratioP1;P1;durP2;ratioP2;P2;SDS_P1;SDS_P2;PMS_P1;PMS_P2;Temp;Humidity;BMP_temperature;BMP_pressure;BME280_temperature;BME280_humidity;BME280_pressure;Samples;Min_cycle;Max_cycle;Signal;HPM_P1;HPM_P2
2023/05/11 00:01:07;;;;;;;;;;;;;;;10.32;38.70;101034.39;102829;276;104730;-56
2023/05/11 00:03:45;;;;;;;;;;;;;;;10.31;38.51;101030.74;102789;277;113874;-56
2023/05/11 00:06:21;;;;;;;;;;;;;;;10.30;38.52;101031.35;102757;276;94979;-56
2023/05/11 00:08:57;;;;;;;;;;;;;;;10.32;38.55;101029.02;102809;277;98082;-57
2023/05/11 00:11:37;;;;;;;;;;;;;;;10.34;38.29;101023.52;102721;277;120760;-56
2023/05/11 00:14:13;;;;;;;;;;;;;;;10.35;38.22;101023.73;102750;277;105224;-54
2023/05/11 00:16:56;;;;;;;;;;;;;;;10.32;38.27;101026.44;102744;277;114191;-54
2023/05/11 00:19:31;;;;;;;;;;;;;;;10.28;38.15;101022.27;102750;276;94519;-54
2023/05/11 00:22:14;;;;;;;;;;;;;;;10.25;38.06;101026.96;102772;277;97177;-55
2023/05/11 00:24:48;;;;;;;;;;;;;;;10.22;38.06;101025.63;102737;277;121202;-55
2023/05/11 00:27:21;;;;;;;;;;;;;;;10.20;38.09;101026.44;102731;277;103355;-54
2023/05/11 00:29:55;;;;;;;;;;;;;;;10.16;37.94;101031.73;102763;277;114894;-56
2023/05/11 00:32:37;;;;;;;;;;;;;;;10.14;37.96;101027.05;102737;277;93643;-55
2023/05/11 00:35:11;;;;;;;;;;;;;;;10.09;37.86;101030.31;102754;277;98307;-55
2023/05/11 00:37:56;;;;;;;;;;;;;;;10.03;38.04;101027.67;102759;277;119174;-54
2023/05/11 00:40:33;;;;;;;;;;;;;;;9.99;37.97;101029.07;102814;277;104497;-57
2023/05/11 00:43:12;;;;;;;;;;;;;;;9.92;38.18;101029.81;102809;277;115162;-56
2023/05/11 00:45:51;;;;;;;;;;;;;;;9.87;38.17;101028.73;102818;277;94354;-57
2023/05/11 00:48:23;;;;;;;;;;;;;;;9.81;38.30;101027.09;102820;277;96987;-57
2023/05/11 00:50:56;;;;;;;;;;;;;;;9.77;38.32;101024.66;102813;277;119257;-57
2023/05/11 00:53:34;;;;;;;;;;;;;;;9.73;38.50;101024.29;102804;277;104203;-57
2023/05/11 00:56:07;;;;;;;;;;;;;;;9.69;38.59;101023.04;102766;277;114159;-57
2023/05/11 00:58:44;;;;;;;;;;;;;;;9.68;38.68;101023.91;102787;277;94154;-54
2023/05/11 01:01:17;;;;;;;;;;;;;;;9.69;38.84;101021.09;102758;276;97326;-55
2023/05/11 01:03:57;;;;;;;;;;;;;;;9.70;38.66;101020.98;102819;277;120801;-56
2023/05/11 01:06:41;;;;;;;;;;;;;;;9.68;38.63;101020.48;102761;277;106307;-56
2023/05/11 01:09:27;;;;;;;;;;;;;;;9.68;38.71;101016.94;102696;277;114576;-53
2023/05/11 01:12:08;;;;;;;;;;;;;;;9.68;38.79;101016.70;102735;277;93140;-54
2023/05/11 01:14:46;;;;;;;;;;;;;;;9.65;38.84;101014.14;102755;277;96962;-57
2023/05/11 01:17:26;;;;;;;;;;;;;;;9.59;38.90;101012.31;102728;276;121428;-57
2023/05/11 01:20:06;;;;;;;;;;;;;;;9.52;39.06;101014.53;102772;277;106778;-54
2023/05/11 01:22:59;;;;;;;;;;;;;;;9.47;39.08;101019.58;102745;277;114532;-54
2023/05/11 01:25:52;;;;;;;;;;;;;;;9.44;39.16;101018.30;102753;277;92988;-57
2023/05/11 01:28:39;;;;;;;;;;;;;;;9.43;39.20;101017.90;102790;277;97560;-55
2023/05/11 01:31:18;;;;;;;;;;;;;;;9.37;39.45;101016.02;102814;277;120652;-55
2023/05/11 01:33:55;;;;;;;;;;;;;;;9.29;39.49;101022.99;102833;277;105396;-57
2023/05/11 01:36:30;;;;;;;;;;;;;;;9.22;39.65;101018.54;102785;277;114329;-56
2023/05/11 01:39:11;;;;;;;;;;;;;;;9.13;39.77;101014.10;102822;277;93232;-55
2023/05/11 01:41:51;;;;;;;;;;;;;;;9.07;39.94;101015.91;102789;277;98235;-54
2023/05/11 01:44:34;;;;;;;;;;;;;;;9.00;40.03;101014.16;102768;276;121415;-56
2023/05/11 01:47:09;;;;;;;;;;;;;;;8.94;40.54;101015.56;102722;277;105837;-57
2023/05/11 01:49:44;;;;;;;;;;;;;;;8.91;40.41;101013.47;102760;277;114333;-56
2023/05/11 01:52:20;;;;;;;;;;;;;;;8.86;40.42;101018.70;102753;277;92183;-56
2023/05/11 01:55:04;;;;;;;;;;;;;;;8.79;40.56;101015.24;102768;277;97735;-55
2023/05/11 01:57:42;;;;;;;;;;;;;;;8.72;40.74;101016.38;102761;277;119746;-56
2023/05/11 02:00:16;;;;;;;;;;;;;;;8.64;41.10;101018.31;102807;277;105955;-55
2023/05/11 02:02:55;;;;;;;;;;;;;;;8.57;41.35;101018.39;102774;277;114681;-55
2023/05/11 02:05:34;;;;;;;;;;;;;;;8.52;41.27;101023.40;102726;277;93635;-57
2023/05/11 02:08:09;;;;;;;;;;;;;;;8.46;41.49;101022.44;102758;277;98048;-57
2023/05/11 02:10:44;;;;;;;;;;;;;;;8.40;41.53;101021.96;102747;277;120519;-56
2023/05/11 02:13:19;;;;;;;;;;;;;;;8.36;41.73;101021.52;102787;277;105546;-56
2023/05/11 02:15:56;;;;;;;;;;;;;;;8.30;41.93;101021.23;102759;277;114865;-56
2023/05/11 02:18:38;;;;;;;;;;;;;;;8.25;42.11;101021.42;102784;277;92775;-58
2023/05/11 02:21:16;;;;;;;;;;;;;;;8.19;42.24;101020.73;102339;279;443610;-58
2023/05/11 02:23:57;;;;;;;;;;;;;;;8.14;42.45;101022.39;102809;277;120728;-55
2023/05/11 02:26:34;;;;;;;;;;;;;;;8.08;42.57;101024.03;102810;277;104404;-55
2023/05/11 02:29:07;;;;;;;;;;;;;;;8.03;42.64;101025.67;102769;277;113980;-57
2023/05/11 02:31:47;;;;;;;;;;;;;;;7.95;42.95;101022.76;102797;265;94149;-57
2023/05/11 02:34:30;;;;;;;;;;;;;;;7.88;43.13;101022.34;102810;277;97216;-57
2023/05/11 02:37:12;;;;;;;;;;;;;;;7.80;43.39;101026.98;102734;277;121187;-57
2023/05/11 02:39:54;;;;;;;;;;;;;;;7.73;43.71;101025.91;102745;277;104996;-56
2023/05/11 02:42:39;;;;;;;;;;;;;;;7.71;43.90;101029.67;102753;277;114870;-57
2023/05/11 02:45:19;;;;;;;;;;;;;;;7.67;43.93;101022.88;102748;276;91641;-56
2023/05/11 02:47:59;;;;;;;;;;;;;;;7.65;44.14;101029.77;102746;277;97782;-56
2023/05/11 02:50:36;;;;;;;;;;;;;;;7.63;44.30;101034.21;102721;277;120161;-57
2023/05/11 02:53:14;;;;;;;;;;;;;;;7.63;44.47;101028.55;102754;277;105889;-59
2023/05/11 02:55:51;;;;;;;;;;;;;;;7.63;44.73;101029.73;102732;277;114375;-57
2023/05/11 02:58:25;;;;;;;;;;;;;;;7.64;44.69;101027.89;102684;277;91662;-57
2023/05/11 03:01:00;;;;;;;;;;;;;;;7.66;44.69;101030.23;102799;277;95501;-59
2023/05/11 03:03:35;;;;;;;;;;;;;;;7.65;44.74;101029.77;102798;277;119566;-56
2023/05/11 03:06:12;;;;;;;;;;;;;;;7.65;44.95;101030.33;102794;277;105551;-56
2023/05/11 03:08:51;;;;;;;;;;;;;;;7.65;45.09;101034.23;102764;277;112494;-57
2023/05/11 03:11:26;;;;;;;;;;;;;;;7.67;45.19;101034.21;102820;277;93709;-57
2023/05/11 03:14:05;;;;;;;;;;;;;;;7.67;45.23;101035.10;102858;277;98942;-54
2023/05/11 03:16:42;;;;;;;;;;;;;;;7.70;45.31;101033.17;102831;277;121108;-54
2023/05/11 03:19:17;;;;;;;;;;;;;;;7.74;45.40;101038.73;102819;277;105730;-57
2023/05/11 03:21:50;;;;;;;;;;;;;;;7.77;45.56;101037.85;102798;277;113584;-55
2023/05/11 03:24:26;;;;;;;;;;;;;;;7.82;45.48;101040.41;102750;277;93813;-54
2023/05/11 03:27:03;;;;;;;;;;;;;;;7.86;45.52;101039.86;102789;277;97090;-54
2023/05/11 03:29:37;;;;;;;;;;;;;;;7.90;45.64;101040.67;102723;277;119826;-55
2023/05/11 03:32:09;;;;;;;;;;;;;;;7.95;45.66;101042.59;102735;277;105675;-55
2023/05/11 03:34:46;;;;;;;;;;;;;;;8.00;45.73;101042.86;102720;277;114509;-55
2023/05/11 03:37:21;;;;;;;;;;;;;;;8.21;45.55;101046.58;102736;277;93207;-55
2023/05/11 03:40:02;;;;;;;;;;;;;;;9.09;45.53;101047.60;102591;277;98331;-57
2023/05/11 03:42:42;;;;;;;;;;;;;;;10.42;44.63;101042.36;102737;265;120828;-56
2023/05/11 03:45:17;;;;;;;;;;;;;;;12.11;43.38;101040.61;102759;276;106359;-57
2023/05/11 03:47:52;;;;;;;;;;;;;;;13.72;41.77;101037.89;102766;277;114806;-57
2023/05/11 03:50:26;;;;;;;;;;;;;;;14.95;40.40;101034.52;102800;276;94723;-59
2023/05/11 03:53:02;;;;;;;;;;;;;;;16.13;38.59;101037.00;102735;277;96156;-56
2023/05/11 03:55:40;;;;;;;;;;;;;;;17.07;37.18;101036.85;102828;277;120364;-57
2023/05/11 03:58:16;;;;;;;;;;;;;;;17.82;36.06;101034.83;102592;277;106559;-55
2023/05/11 04:00:50;;;;;;;;;;;;;;;18.60;34.99;101033.43;102560;277;114868;-55
2023/05/11 04:03:23;;;;;;;;;;;;;;;19.26;34.10;101037.13;102775;276;92838;-58
2023/05/11 04:05:59;;;;;;;;;;;;;;;19.94;32.75;101036.92;102807;277;98093;-57
2023/05/11 04:08:35;;;;;;;;;;;;;;;19.71;31.58;101038.63;102748;276;119580;-54
2023/05/11 04:11:09;;;;;;;;;;;;;;;18.40;31.86;101046.29;102786;277;104427;-55
2023/05/11 04:13:42;;;;;;;;;;;;;;;16.92;32.35;101052.50;102733;276;114166;-53
2023/05/11 04:16:21;;;;;;;;;;;;;;;15.73;32.90;101052.86;102735;276;93036;-52
2023/05/11 04:18:55;;;;;;;;;;;;;;;14.76;33.65;101053.55;102770;276;97711;-56
2023/05/11 04:21:34;;;;;;;;;;;;;;;14.22;34.18;101053.05;102753;277;121390;-56
2023/05/11 04:24:09;;;;;;;;;;;;;;;13.64;34.75;101054.83;102779;277;104311;-55
2023/05/11 04:26:45;;;;;;;;;;;;;;;13.11;35.31;101060.97;102804;276;112962;-57
2023/05/11 04:29:23;;;;;;;;;;;;;;;12.70;36.04;101060.36;102745;276;94396;-55
2023/05/11 04:32:01;;;;;;;;;;;;;;;12.37;36.50;101059.95;102812;276;97078;-56
2023/05/11 04:34:36;;;;;;;;;;;;;;;12.08;36.73;101060.35;102795;276;119809;-57
2023/05/11 04:37:14;;;;;;;;;;;;;;;12.05;37.03;101062.84;102773;276;105500;-56
2023/05/11 04:39:50;;;;;;;;;;;;;;;12.03;37.13;101064.86;102550;278;113682;-56
2023/05/11 04:42:27;;;;;;;;;;;;;;;12.09;37.43;101060.77;102754;276;93557;-57
2023/05/11 04:45:06;;;;;;;;;;;;;;;12.28;37.65;101058.58;102822;276;96841;-55
2023/05/11 04:47:41;;;;;;;;;;;;;;;13.52;37.29;101059.38;102712;276;120590;-56
2023/05/11 04:50:19;;;;;;;;;;;;;;;15.91;35.93;101052.22;102769;276;105896;-58
2023/05/11 04:52:55;;;;;;;;;;;;;;;18.64;34.15;101051.05;102771;276;112929;-56
2023/05/11 04:55:31;;;;;;;;;;;;;;;20.79;31.86;101046.69;102825;276;94030;-58
2023/05/11 04:58:04;;;;;;;;;;;;;;;22.32;29.56;101046.10;102768;277;97463;-57
2023/05/11 05:00:44;;;;;;;;;;;;;;;23.46;28.49;101045.69;102792;276;120322;-58
2023/05/11 05:03:18;;;;;;;;;;;;;;;24.70;27.55;101041.79;102807;276;104989;-55
2023/05/11 05:05:54;;;;;;;;;;;;;;;25.58;26.10;101045.48;102773;276;114378;-56
2023/05/11 05:08:30;;;;;;;;;;;;;;;26.31;25.22;101048.34;102801;276;96110;-58
2023/05/11 05:11:03;;;;;;;;;;;;;;;26.53;24.34;101046.10;102844;276;96916;-58
2023/05/11 05:13:39;;;;;;;;;;;;;;;26.74;23.39;101042.80;102804;276;120728;-58
2023/05/11 05:16:15;;;;;;;;;;;;;;;26.98;23.28;101046.32;102779;276;104738;-58
2023/05/11 05:18:50;;;;;;;;;;;;;;;27.41;23.20;101047.31;102757;276;114076;-58
2023/05/11 05:21:24;;;;;;;;;;;;;;;28.02;22.34;101047.59;102742;276;92681;-58
2023/05/11 05:24:05;;;;;;;;;;;;;;;28.39;21.80;101045.70;102758;276;97406;-60
2023/05/11 05:26:38;;;;;;;;;;;;;;;28.74;21.40;101045.20;102770;276;120730;-60
2023/05/11 05:29:13;;;;;;;;;;;;;;;28.96;20.62;101049.09;102776;276;104810;-55
2023/05/11 05:31:47;;;;;;;;;;;;;;;29.35;20.01;101044.17;102740;276;114412;-57
2023/05/11 05:34:27;;;;;;;;;;;;;;;29.45;19.93;101047.40;102731;276;95433;-55
2023/05/11 05:37:08;;;;;;;;;;;;;;;29.59;19.63;101049.88;102748;276;95706;-56
2023/05/11 05:39:45;;;;;;;;;;;;;;;29.35;19.20;101050.45;102688;276;120366;-56
2023/05/11 05:42:25;;;;;;;;;;;;;;;29.22;19.25;101052.68;102542;278;105751;-57
2023/05/11 05:44:58;;;;;;;;;;;;;;;29.43;18.72;101054.88;102769;276;113201;-57
2023/05/11 05:47:32;;;;;;;;;;;;;;;29.79;18.79;101059.05;102741;272;95192;-56
2023/05/11 05:50:08;;;;;;;;;;;;;;;30.15;18.46;101058.41;102772;276;95836;-59
2023/05/11 05:52:43;;;;;;;;;;;;;;;30.33;18.13;101059.07;102827;276;120090;-58
2023/05/11 05:55:21;;;;;;;;;;;;;;;30.53;18.22;101058.34;102807;276;106094;-56
2023/05/11 05:57:58;;;;;;;;;;;;;;;30.59;18.80;101058.85;102771;276;115017;-59
2023/05/11 06:00:35;;;;;;;;;;;;;;;31.10;17.86;101056.85;102760;276;95043;-59
2023/05/11 06:03:13;;;;;;;;;;;;;;;31.12;17.31;101052.23;102742;277;98031;-59
2023/05/11 06:05:51;;;;;;;;;;;;;;;31.26;17.78;101054.21;102731;277;121088;-59
2023/05/11 06:08:24;;;;;;;;;;;;;;;31.44;17.14;101048.55;102776;277;105036;-55
2023/05/11 06:10:58;;;;;;;;;;;;;;;31.18;17.37;101054.34;102770;277;112674;-56
2023/05/11 06:13:31;;;;;;;;;;;;;;;31.73;17.41;101053.16;102765;277;94179;-56
2023/05/11 06:16:09;;;;;;;;;;;;;;;32.00;16.78;101055.77;102730;277;97263;-55
2023/05/11 06:18:44;;;;;;;;;;;;;;;32.38;16.81;101056.45;102738;276;122052;-56
2023/05/11 06:21:18;;;;;;;;;;;;;;;32.58;15.81;101061.44;102759;277;106063;-55
2023/05/11 06:23:52;;;;;;;;;;;;;;;32.49;15.95;101059.77;102754;277;114789;-56
2023/05/11 06:26:27;;;;;;;;;;;;;;;32.74;15.73;101061.30;102710;277;94477;-57
2023/05/11 06:29:00;;;;;;;;;;;;;;;32.77;15.38;101063.13;102796;277;98177;-56
2023/05/11 06:31:34;;;;;;;;;;;;;;;32.14;15.52;101061.16;102804;277;119801;-56
2023/05/11 06:34:09;;;;;;;;;;;;;;;32.57;15.76;101062.70;102772;277;105415;-56
2023/05/11 06:36:51;;;;;;;;;;;;;;;32.57;14.89;101064.53;102813;277;114369;-56
2023/05/11 06:39:28;;;;;;;;;;;;;;;32.19;15.26;101065.23;102771;277;94438;-53
2023/05/11 06:42:03;;;;;;;;;;;;;;;32.12;15.14;101071.50;102828;277;97529;-53
2023/05/11 06:44:37;;;;;;;;;;;;;;;31.92;15.00;101072.17;102826;277;121364;-56
2023/05/11 06:47:11;;;;;;;;;;;;;;;31.69;15.15;101066.67;102757;277;104498;-57
2023/05/11 06:49:48;;;;;;;;;;;;;;;31.60;14.92;101068.66;102552;277;115397;-59
2023/05/11 06:52:28;;;;;;;;;;;;;;;32.06;15.27;101068.84;102745;265;94994;-59
2023/05/11 06:55:02;;;;;;;;;;;;;;;32.26;14.93;101069.53;102815;277;97244;-58
2023/05/11 06:57:41;;;;;;;;;;;;;;;31.99;14.94;101066.96;102752;277;119738;-61
2023/05/11 07:00:17;;;;;;;;;;;;;;;32.23;14.88;101070.67;102753;276;104496;-62
2023/05/11 07:02:53;;;;;;;;;;;;;;;32.20;14.84;101075.60;102782;277;114133;-62
2023/05/11 07:05:28;;;;;;;;;;;;;;;31.83;14.73;101071.65;102758;277;93827;-61
2023/05/11 07:08:08;;;;;;;;;;;;;;;31.93;14.59;101071.02;102814;277;96519;-58
2023/05/11 07:10:43;;;;;;;;;;;;;;;31.54;14.43;101078.33;102718;277;120023;-59
2023/05/11 07:13:22;;;;;;;;;;;;;;;31.02;14.44;101079.38;102728;277;105032;-59
2023/05/11 07:15:59;;;;;;;;;;;;;;;30.71;14.55;101078.21;102736;277;113856;-59
2023/05/11 07:18:37;;;;;;;;;;;;;;;30.53;14.59;101079.39;102756;300;93307;-57
2023/05/11 07:21:11;;;;;;;;;;;;;;;31.08;14.37;101070.07;102851;276;96891;-58
2023/05/11 07:23:47;;;;;;;;;;;;;;;30.98;14.23;101067.73;102787;276;119096;-60
2023/05/11 07:26:21;;;;;;;;;;;;;;;30.88;14.50;101066.86;102614;277;105641;-59
2023/05/11 07:28:58;;;;;;;;;;;;;;;31.15;14.58;101063.83;102783;277;114550;-61
2023/05/11 07:31:35;;;;;;;;;;;;;;;31.46;14.57;101052.90;102799;277;94112;-60
2023/05/11 07:34:09;;;;;;;;;;;;;;;31.79;14.44;101057.66;102792;277;96926;-60
2023/05/11 07:36:45;;;;;;;;;;;;;;;31.07;13.52;101066.26;102820;276;119593;-59
2023/05/11 07:39:19;;;;;;;;;;;;;;;30.03;13.45;101070.84;102776;276;104261;-55
2023/05/11 07:41:52;;;;;;;;;;;;;;;29.16;13.51;101074.05;102791;277;114703;-57
2023/05/11 07:44:31;;;;;;;;;;;;;;;28.50;14.03;101073.11;102604;277;93368;-57
2023/05/11 07:47:09;;;;;;;;;;;;;;;28.40;14.14;101068.40;102762;276;96150;-56
2023/05/11 07:49:46;;;;;;;;;;;;;;;28.36;14.49;101061.77;102745;277;119780;-57
2023/05/11 07:52:20;;;;;;;;;;;;;;;28.07;14.19;101068.27;102727;276;104306;-57
2023/05/11 07:54:59;;;;;;;;;;;;;;;27.56;14.38;101069.52;102758;277;113598;-59
2023/05/11 07:57:35;;;;;;;;;;;;;;;27.58;15.12;101065.29;102751;277;92953;-59
2023/05/11 08:00:13;;;;;;;;;;;;;;;27.58;15.12;101064.08;102527;277;97659;-56
2023/05/11 08:02:55;;;;;;;;;;;;;;;27.54;14.83;101063.53;102790;277;119081;-57
2023/05/11 08:05:40;;;;;;;;;;;;;;;26.78;14.98;101071.69;102747;276;104563;-57
2023/05/11 08:08:23;;;;;;;;;;;;;;;26.86;15.54;101065.31;102734;277;112835;-55
2023/05/11 08:10:59;;;;;;;;;;;;;;;26.49;15.60;101087.01;102776;276;94910;-55
2023/05/11 08:13:35;;;;;;;;;;;;;;;26.46;16.08;101066.29;102794;277;96685;-58
2023/05/11 08:16:09;;;;;;;;;;;;;;;27.38;15.89;101067.15;102817;276;120322;-58
2023/05/11 08:18:43;;;;;;;;;;;;;;;27.35;15.62;101055.55;102813;276;103850;-58
2023/05/11 08:21:18;;;;;;;;;;;;;;;27.89;15.74;101053.17;102761;276;115059;-58
2023/05/11 08:23:55;;;;;;;;;;;;;;;28.17;15.72;101053.65;102782;277;93738;-57
2023/05/11 08:26:37;;;;;;;;;;;;;;;28.46;15.73;101047.63;102762;276;97418;-57
2023/05/11 08:29:11;;;;;;;;;;;;;;;28.80;15.33;101044.48;102530;278;123074;-57
2023/05/11 08:31:44;;;;;;;;;;;;;;;28.81;15.56;101049.91;102754;276;105559;-58
2023/05/11 08:34:24;;;;;;;;;;;;;;;29.00;15.59;101040.98;102721;277;114515;-60
2023/05/11 08:37:01;;;;;;;;;;;;;;;29.47;15.72;101042.74;102784;277;93588;-60
2023/05/11 08:39:35;;;;;;;;;;;;;;;29.27;14.78;101042.05;102849;277;98141;-59
2023/05/11 08:42:16;;;;;;;;;;;;;;;28.83;15.10;101050.34;102766;277;119263;-59
2023/05/11 08:44:58;;;;;;;;;;;;;;;28.47;15.35;101046.89;102847;276;104629;-60
2023/05/11 08:47:32;;;;;;;;;;;;;;;28.19;15.23;101046.14;102835;277;114214;-60
2023/05/11 08:50:09;;;;;;;;;;;;;;;27.82;15.37;101043.50;102799;276;93200;-56
2023/05/11 08:52:43;;;;;;;;;;;;;;;27.88;16.05;101036.84;102815;276;98071;-57
2023/05/11 08:55:26;;;;;;;;;;;;;;;27.16;15.67;101047.19;102776;276;121673;-57
2023/05/11 08:58:03;;;;;;;;;;;;;;;26.64;15.89;101038.17;102760;277;105897;-57
2023/05/11 09:00:37;;;;;;;;;;;;;;;26.68;16.14;101034.06;102752;277;115331;-56
2023/05/11 09:03:11;;;;;;;;;;;;;;;26.27;16.47;101047.19;102771;276;92855;-58
2023/05/11 09:05:46;;;;;;;;;;;;;;;25.71;16.46;101049.73;102750;276;97647;-57
2023/05/11 09:08:22;;;;;;;;;;;;;;;25.24;16.69;101050.63;102771;277;121229;-56
2023/05/11 09:10:58;;;;;;;;;;;;;;;24.83;17.08;101041.88;102746;276;105813;-54
2023/05/11 09:13:32;;;;;;;;;;;;;;;24.10;17.51;101049.98;102749;276;114937;-57
2023/05/11 09:16:10;;;;;;;;;;;;;;;23.87;18.08;101043.34;102804;276;93598;-56
2023/05/11 09:18:51;;;;;;;;;;;;;;;23.01;18.21;101058.08;102784;276;97650;-56
2023/05/11 09:21:30;;;;;;;;;;;;;;;22.52;18.67;101051.84;102798;269;120385;-56
2023/05/11 09:24:04;;;;;;;;;;;;;;;22.33;19.18;101041.79;102571;276;105717;-57
2023/05/11 09:26:41;;;;;;;;;;;;;;;22.22;19.66;101049.20;102784;276;114163;-56
2023/05/11 09:29:19;;;;;;;;;;;;;;;22.27;19.70;101040.30;102786;276;93818;-57
2023/05/11 09:31:56;;;;;;;;;;;;;;;22.09;19.70;101057.33;102793;276;96524;-58
2023/05/11 09:34:34;;;;;;;;;;;;;;;21.93;19.89;101042.30;102751;276;118689;-59
2023/05/11 09:37:15;;;;;;;;;;;;;;;22.07;20.28;101034.91;102741;276;104951;-58
2023/05/11 09:39:56;;;;;;;;;;;;;;;22.33;20.53;101032.37;102741;276;114557;-55
2023/05/11 09:42:34;;;;;;;;;;;;;;;22.21;20.37;101047.69;102765;276;94399;-56
2023/05/11 09:45:10;;;;;;;;;;;;;;;21.97;20.35;101049.91;102747;276;97492;-59
2023/05/11 09:47:50;;;;;;;;;;;;;;;21.78;20.18;101041.20;102757;276;121636;-59
2023/05/11 09:50:25;;;;;;;;;;;;;;;21.64;20.34;101039.16;102752;276;104342;-59
2023/05/11 09:53:00;;;;;;;;;;;;;;;21.45;20.46;101033.23;102781;276;114878;-58
2023/05/11 09:55:38;;;;;;;;;;;;;;;21.21;20.41;101044.13;102790;276;94847;-58
2023/05/11 09:58:15;;;;;;;;;;;;;;;20.90;20.79;101029.60;102743;276;97049;-56
2023/05/11 10:00:57;;;;;;;;;;;;;;;20.93;21.12;101038.77;102545;278;120947;-56
2023/05/11 10:03:34;;;;;;;;;;;;;;;20.90;21.38;101034.48;102827;276;104636;-57
2023/05/11 10:06:08;;;;;;;;;;;;;;;20.89;21.36;101032.42;102793;277;113570;-57
2023/05/11 10:08:44;;;;;;;;;;;;;;;20.86;21.47;101030.70;102778;277;94161;-57
2023/05/11 10:11:23;;;;;;;;;;;;;;;20.84;21.66;101020.61;102752;276;97912;-59
2023/05/11 10:13:56;;;;;;;;;;;;;;;20.87;21.66;101019.42;102747;276;120576;-59
2023/05/11 10:16:35;;;;;;;;;;;;;;;20.85;21.54;101010.95;102753;277;104531;-58
2023/05/11 10:19:14;;;;;;;;;;;;;;;20.62;21.63;101009.96;102486;277;384317;-56
2023/05/11 10:21:49;;;;;;;;;;;;;;;20.65;22.12;101016.57;102721;277;94339;-56
2023/05/11 10:24:28;;;;;;;;;;;;;;;20.78;22.21;101022.02;102819;277;97783;-58
2023/05/11 10:27:05;;;;;;;;;;;;;;;20.83;22.12;101009.05;102781;277;121187;-58
2023/05/11 10:29:39;;;;;;;;;;;;;;;20.99;22.13;101008.80;102783;277;103991;-57
2023/05/11 10:32:18;;;;;;;;;;;;;;;21.07;22.20;101009.88;102795;277;114455;-56
2023/05/11 10:34:57;;;;;;;;;;;;;;;20.99;21.94;101009.79;102776;277;94187;-57
2023/05/11 10:37:33;;;;;;;;;;;;;;;20.84;22.39;101001.52;102804;277;97452;-58
2023/05/11 10:40:07;;;;;;;;;;;;;;;20.86;22.39;101007.27;102769;277;121520;-59
2023/05/11 10:43:16;;;;;;;;;;;;;;;20.79;22.31;101009.84;102739;276;104805;-58
2023/05/11 10:46:02;;;;;;;;;;;;;;;21.00;22.40;100999.75;102761;265;114003;-59
2023/05/11 10:48:56;;;;;;;;;;;;;;;21.22;22.32;100996.21;102780;277;94328;-59
2023/05/11 10:51:53;;;;;;;;;;;;;;;21.41;22.48;100988.14;102756;277;98196;-59
2023/05/11 10:54:38;;;;;;;;;;;;;;;21.14;21.99;100996.04;102744;277;120057;-57
2023/05/11 10:57:25;;;;;;;;;;;;;;;20.91;22.10;100990.45;102768;277;105241;-57
2023/05/11 11:00:34;;;;;;;;;;;;;;;20.68;22.43;100990.59;102747;277;114072;-56
2023/05/11 11:03:19;;;;;;;;;;;;;;;20.72;22.67;100989.70;102643;277;93753;-57
2023/05/11 11:05:55;;;;;;;;;;;;;;;20.79;22.48;100982.11;102661;278;96951;-58
2023/05/11 11:08:28;;;;;;;;;;;;;;;20.80;22.55;100976.86;102697;278;118832;-56
2023/05/11 11:11:26;;;;;;;;;;;;;;;20.90;22.56;100978.12;102662;278;104627;-57
2023/05/11 11:14:05;;;;;;;;;;;;;;;20.81;22.47;100975.67;102619;278;113595;-55
2023/05/11 11:16:41;;;;;;;;;;;;;;;20.63;22.77;100976.83;102604;278;94313;-54
2023/05/11 11:19:39;;;;;;;;;;;;;;;20.36;23.01;100974.84;102652;277;97509;-57
2023/05/11 11:22:42;;;;;;;;;;;;;;;20.42;23.26;100964.17;102631;278;119950;-56
2023/05/11 11:25:32;;;;;;;;;;;;;;;20.48;23.20;100975.06;102639;278;104339;-58
2023/05/11 11:28:09;;;;;;;;;;;;;;;20.34;23.18;100977.52;102613;278;114808;-58
2023/05/11 11:30:43;;;;;;;;;;;;;;;20.33;23.05;100973.77;102579;277;93670;-58
2023/05/11 11:33:35;;;;;;;;;;;;;;;20.39;23.18;100967.88;102599;278;97807;-55
2023/05/11 11:38:24;;;;;;;5.90;2.00;;;;;;;20.43;23.20;100968.84;100504;306;618994;-56
2023/05/11 11:41:02;;;;;;;3.60;1.70;;;;;;;20.46;23.29;100967.33;102142;283;93658;-55
2023/05/11 11:43:54;;;;;;;4.60;1.60;;;;;;;20.44;23.23;100971.20;102157;283;95711;-59
2023/05/11 11:46:31;;;;;;;5.00;1.60;;;;;;;20.51;23.50;100970.34;102123;282;117595;-59
2023/05/11 11:49:13;;;;;;;4.80;2.00;;;;;;;20.50;23.44;100974.13;102094;283;105114;-55
2023/05/11 11:51:54;;;;;;;3.60;2.20;;;;;;;20.43;23.39;100972.91;101808;282;421338;-57
2023/05/11 11:54:50;;;;;;;3.30;1.80;;;;;;;20.40;23.37;100971.10;102221;281;94160;-58
2023/05/11 11:57:54;;;;;;;4.40;2.20;;;;;;;20.25;23.16;100973.73;102265;281;95961;-59
2023/05/11 12:00:30;;;;;;;3.30;1.50;;;;;;;20.11;23.37;100975.54;102213;281;116965;-59
2023/05/11 12:03:13;;;;;;;5.80;1.60;;;;;;;20.02;23.34;100978.82;102250;281;106371;-58
2023/05/11 12:06:00;;;;;;;2.40;1.70;;;;;;;19.83;23.34;100971.92;102183;281;114592;-58
2023/05/11 12:08:38;;;;;;;3.40;1.70;;;;;;;19.82;23.53;100957.80;102246;281;93858;-57
2023/05/11 12:11:21;;;;;;;5.50;1.70;;;;;;;19.84;23.90;100968.16;102250;281;97343;-57
2023/05/11 12:14:02;;;;;;;4.60;1.80;;;;;;;19.80;23.47;100970.83;102221;281;117692;-56
2023/05/11 12:16:39;;;;;;;3.20;1.80;;;;;;;19.73;23.44;100965.76;102277;281;105458;-55
2023/05/11 12:19:24;;;;;;;2.40;2.00;;;;;;;19.60;23.45;100972.08;102269;281;113740;-57
2023/05/11 12:22:09;;;;;;;4.70;2.00;;;;;;;19.50;23.55;100963.54;102268;281;93425;-57
2023/05/11 12:24:47;;;;;;;3.30;1.80;;;;;;;19.60;23.73;100958.88;102250;281;97237;-56
2023/05/11 12:27:25;;;;;;;5.50;1.60;;;;;;;19.71;23.86;100952.33;102246;270;117551;-53
2023/05/11 12:30:07;;;;;;;4.00;1.60;;;;;;;19.86;24.30;100958.45;102209;281;103694;-57
2023/05/11 12:32:50;;;;;;;5.50;1.90;;;;;;;19.90;24.11;100955.98;102239;281;114665;-55
2023/05/11 12:35:35;;;;;;;3.10;2.10;;;;;;;19.85;24.04;100958.23;102246;281;94714;-55
2023/05/11 12:38:18;;;;;;;3.10;1.50;;;;;;;19.88;24.24;100956.85;102289;281;97226;-57
2023/05/11 12:40:59;;;;;;;2.40;1.90;;;;;;;19.84;24.17;100950.46;102266;281;118625;-58
2023/05/11 12:43:45;;;;;;;3.60;2.00;;;;;;;19.79;24.20;100947.04;102276;281;105636;-57
2023/05/11 12:46:25;;;;;;;2.70;1.60;;;;;;;19.78;24.14;100947.50;102237;281;114731;-58
2023/05/11 12:49:12;;;;;;;2.20;1.60;;;;;;;19.66;24.04;100941.23;102224;281;93601;-55
2023/05/11 12:52:07;;;;;;;6.90;2.10;;;;;;;19.65;24.13;100940.66;102240;282;96236;-59
2023/05/11 12:54:57;;;;;;;3.40;2.00;;;;;;;19.49;24.51;100936.57;102152;282;121052;-57
2023/05/11 12:57:37;;;;;;;2.70;1.60;;;;;;;19.45;24.83;100939.80;102243;282;106239;-58
2023/05/11 13:00:19;;;;;;;4.10;2.10;;;;;;;19.51;24.86;100931.34;102381;280;113329;-56
2023/05/11 13:03:06;;;;;;;2.70;1.90;;;;;;;19.49;24.77;100928.61;102430;279;94417;-56
2023/05/11 13:05:42;;;;;;;4.10;1.80;;;;;;;19.43;25.05;100931.54;102396;279;97617;-57
2023/05/11 13:08:21;;;;;;;3.10;2.00;;;;;;;19.48;25.09;100925.64;102400;279;116843;-57
2023/05/11 13:11:21;;;;;;;3.40;1.60;;;;;;;19.44;25.11;100919.23;102439;279;105586;-57
2023/05/11 13:14:17;;;;;;;4.30;1.90;;;;;;;19.51;25.19;100924.33;102411;280;114194;-57
2023/05/11 13:16:57;;;;;;;5.80;2.20;;;;;;;19.53;25.49;100923.23;102296;279;94557;-57
2023/05/11 13:19:38;;;;;;;4.00;2.10;;;;;;;19.52;25.27;100918.32;102422;279;97864;-58
2023/05/11 13:22:16;;;;;;;4.60;2.00;;;;;;;19.54;25.35;100922.88;102395;279;117686;-56